createdAt,value
2022-09-06T00:01:28.000Z,1.25
2022-09-06T00:03:58.935Z,1.40
2022-09-06T00:06:28.152Z,1.90
2022-09-06T00:08:57.401Z,1.35
2022-09-06T00:11:26.094Z,1.45
2022-09-06T00:13:55.863Z,1.52
2022-09-06T00:16:29.792Z,1.20
2022-09-06T00:19:01.052Z,1.40
2022-09-06T00:21:32.248Z,1.45
2022-09-06T00:24:01.108Z,1.55
2022-09-06T00:26:30.427Z,1.63
2022-09-06T00:28:59.837Z,1.60
2022-09-06T00:31:29.602Z,1.70
2022-09-06T00:33:59.401Z,1.65
2022-09-06T00:36:30.364Z,1.60
2022-09-06T00:38:59.384Z,1.52
2022-09-06T00:41:28.636Z,1.63
2022-09-06T00:43:57.990Z,1.70
2022-09-06T00:46:29.260Z,1.17
2022-09-06T00:49:00.420Z,1.30
2022-09-06T00:51:34.126Z,1.40
2022-09-06T00:54:05.762Z,1.25
2022-09-06T00:56:36.905Z,1.10
2022-09-06T00:59:06.656Z,1.45
2022-09-06T01:01:35.926Z,1.20
2022-09-06T01:04:05.759Z,1.13
2022-09-06T01:06:46.665Z,1.20
2022-09-06T01:09:29.885Z,1.52
2022-09-06T01:12:14.604Z,0.98
2022-09-06T01:14:57.175Z,0.93
2022-09-06T01:17:37.445Z,1.00
2022-09-06T01:20:45.692Z,1.33
2022-09-06T01:23:47.598Z,1.10
2022-09-06T01:26:52.874Z,0.90
2022-09-06T01:29:29.948Z,1.13
2022-09-06T01:32:09.094Z,1.10
2022-09-06T01:34:44.054Z,1.60
2022-09-06T01:37:16.009Z,1.10
2022-09-06T01:39:45.385Z,1.23
2022-09-06T01:42:20.963Z,1.20
2022-09-06T01:44:55.242Z,0.95
2022-09-06T01:47:35.564Z,1.30
2022-09-06T01:50:47.453Z,1.10
2022-09-06T01:53:33.487Z,1.17
2022-09-06T01:56:11.255Z,1.13
2022-09-06T01:58:58.870Z,1.33
2022-09-06T02:01:35.814Z,1.23
2022-09-06T02:04:14.075Z,1.38
2022-09-06T02:06:47.094Z,1.40
2022-09-06T02:09:20.142Z,1.52
2022-09-06T02:11:53.040Z,1.30
2022-09-06T02:14:29.046Z,1.20
2022-09-06T02:17:01.770Z,1.20
2022-09-06T02:19:38.845Z,1.40
2022-09-06T02:22:11.968Z,1.45
2022-09-06T02:24:43.864Z,1.42
2022-09-06T02:27:14.704Z,1.55
2022-09-06T02:29:45.547Z,1.63
2022-09-06T02:32:20.668Z,1.33
2022-09-06T02:34:51.530Z,1.60
2022-09-06T02:37:21.388Z,1.55
2022-09-06T02:39:52.154Z,1.85
2022-09-06T02:42:21.880Z,1.92
2022-09-06T02:44:51.270Z,1.58
2022-09-06T02:47:22.157Z,2.05
2022-09-06T02:49:51.442Z,1.95
2022-09-06T02:52:20.725Z,1.90
2022-09-06T02:54:50.095Z,1.90
2022-09-06T02:57:19.502Z,1.90
2022-09-06T02:59:48.634Z,1.60
2022-09-06T03:02:18.589Z,1.95
2022-09-06T03:04:49.265Z,1.60
2022-09-06T03:07:19.025Z,1.50
2022-09-06T03:09:48.885Z,1.80
2022-09-06T03:12:18.294Z,1.60
2022-09-06T03:14:54.286Z,2.22
2022-09-06T03:17:25.940Z,1.75
2022-09-06T03:20:09.407Z,1.70
2022-09-06T03:22:42.262Z,1.70
2022-09-06T03:25:12.410Z,1.50
2022-09-06T03:27:41.677Z,1.48
2022-09-06T03:30:11.512Z,1.70
2022-09-06T03:32:41.780Z,2.00
2022-09-06T03:35:15.718Z,1.63
2022-09-06T03:37:45.426Z,1.90
2022-09-06T03:40:14.644Z,1.70
2022-09-06T03:42:46.779Z,1.88
2022-09-06T03:45:16.371Z,1.63
2022-09-06T03:47:46.333Z,1.70
2022-09-06T03:50:18.849Z,1.67
2022-09-06T03:52:48.109Z,1.63
2022-09-06T03:55:18.838Z,2.00
2022-09-06T03:57:49.114Z,1.77
2022-09-06T04:00:18.768Z,1.85
2022-09-06T04:02:48.920Z,1.80
2022-09-06T04:05:19.585Z,1.35
2022-09-06T04:07:49.065Z,1.50
2022-09-06T04:10:19.252Z,2.03
2022-09-06T04:12:49.882Z,1.90
2022-09-06T04:15:20.219Z,1.60
2022-09-06T04:17:50.332Z,1.60
2022-09-06T04:20:21.508Z,1.45
2022-09-06T04:22:51.010Z,1.58
2022-09-06T04:25:20.932Z,1.48
2022-09-06T04:27:50.621Z,1.20
2022-09-06T04:30:22.089Z,1.13
2022-09-06T04:35:24.008Z,1.20
2022-09-06T04:40:24.699Z,1.08
2022-09-06T04:42:54.074Z,1.30
2022-09-06T04:45:25.100Z,1.25
2022-09-06T04:47:54.898Z,1.23
2022-09-06T04:50:27.433Z,1.08
2022-09-06T04:53:07.941Z,1.30
2022-09-06T04:55:38.201Z,1.20
2022-09-06T04:58:08.270Z,1.33
2022-09-06T05:00:42.681Z,0.90
2022-09-06T05:03:12.386Z,1.00
2022-09-06T05:05:43.301Z,1.02
2022-09-06T05:08:13.025Z,1.50
2022-09-06T05:10:43.746Z,1.15
2022-09-06T05:13:14.536Z,1.10
2022-09-06T05:15:45.208Z,1.30
2022-09-06T05:18:16.306Z,1.10
2022-09-06T05:20:53.458Z,1.08
2022-09-06T05:23:25.979Z,1.00
2022-09-06T05:25:56.210Z,1.15
2022-09-06T05:28:26.196Z,0.73
2022-09-06T05:31:06.365Z,0.90
2022-09-06T05:33:36.642Z,1.00
2022-09-06T05:36:10.034Z,0.70
2022-09-06T05:38:40.743Z,0.80
2022-09-06T05:41:12.322Z,1.48
2022-09-06T05:43:44.742Z,1.52
2022-09-06T05:46:15.574Z,1.67
2022-09-06T05:48:45.971Z,1.00
2022-09-06T05:51:17.352Z,1.33
2022-09-06T05:53:47.700Z,1.20
2022-09-06T05:56:19.379Z,1.52
2022-09-06T05:58:50.829Z,1.55
2022-09-06T06:01:22.302Z,1.52
2022-09-06T06:03:59.091Z,1.48
2022-09-06T06:06:32.122Z,1.20
2022-09-06T06:09:02.588Z,1.40
2022-09-06T06:11:32.465Z,1.65
2022-09-06T06:14:02.191Z,1.10
2022-09-06T06:16:32.114Z,1.10
2022-09-06T06:19:01.696Z,1.20
2022-09-06T06:21:35.542Z,1.30
2022-09-06T06:24:07.155Z,1.30
2022-09-06T06:26:38.469Z,1.50
2022-09-06T06:29:09.825Z,1.20
2022-09-06T06:31:40.668Z,1.55
2022-09-06T06:34:12.462Z,1.98
2022-09-06T06:36:45.886Z,1.27
2022-09-06T06:39:15.597Z,1.70
2022-09-06T06:41:45.571Z,1.50
2022-09-06T06:44:33.951Z,1.65
2022-09-06T06:47:05.604Z,2.13
2022-09-06T06:49:35.962Z,1.80
2022-09-06T06:52:07.991Z,1.80
2022-09-06T06:54:39.364Z,1.95
2022-09-06T06:57:09.676Z,2.17
2022-09-06T06:59:42.954Z,2.10
2022-09-06T07:02:15.985Z,2.15
2022-09-06T07:04:45.861Z,1.95
2022-09-06T07:07:36.543Z,2.05
2022-09-06T07:13:01.884Z,1.77
2022-09-06T07:15:32.122Z,1.63
2022-09-06T07:18:02.512Z,2.10
2022-09-06T07:26:18.359Z,1.42
2022-09-06T07:28:48.416Z,1.52
2022-09-06T07:34:10.632Z,1.23
2022-09-06T07:36:44.292Z,1.90
2022-09-06T07:39:16.376Z,2.00
2022-09-06T07:41:46.859Z,1.52
2022-09-06T07:44:16.880Z,1.50
2022-09-06T07:46:47.545Z,1.30
2022-09-06T07:49:18.436Z,1.40
2022-09-06T07:51:48.579Z,1.30
2022-09-06T07:54:36.643Z,1.63
2022-09-06T07:57:07.101Z,1.80
2022-09-06T07:59:43.043Z,1.60
2022-09-06T08:02:18.123Z,1.83
2022-09-06T08:04:51.696Z,2.58
2022-09-06T08:10:10.913Z,1.45
2022-09-06T08:12:41.480Z,1.73
2022-09-06T08:15:11.923Z,1.48
2022-09-06T08:17:42.897Z,1.85
2022-09-06T08:20:13.151Z,1.40
2022-09-06T08:22:44.818Z,1.20
2022-09-06T08:25:15.946Z,1.27
2022-09-06T08:27:45.184Z,1.70
2022-09-06T08:30:16.128Z,1.30
2022-09-06T08:32:45.708Z,1.35
2022-09-06T08:35:16.391Z,1.50
2022-09-06T08:37:47.214Z,1.92
2022-09-06T08:40:24.023Z,1.40
2022-09-06T08:42:54.276Z,1.30
2022-09-06T08:45:25.196Z,1.15
2022-09-06T08:47:58.524Z,1.42
2022-09-06T08:50:31.941Z,1.45
2022-09-06T08:53:23.312Z,1.10
2022-09-06T08:56:00.576Z,1.00
2022-09-06T08:58:42.313Z,1.10
2022-09-06T09:01:19.655Z,1.30
2022-09-06T09:03:50.416Z,1.48
2022-09-06T09:06:20.744Z,1.30
2022-09-06T09:09:01.889Z,1.30
2022-09-06T09:11:36.252Z,1.23
2022-09-06T09:14:10.409Z,1.13
2022-09-06T09:16:42.004Z,1.10
2022-09-06T09:19:13.305Z,0.98
2022-09-06T09:21:43.899Z,0.98
2022-09-06T09:24:15.906Z,1.20
2022-09-06T09:26:57.193Z,0.93
2022-09-06T09:29:31.134Z,1.10
2022-09-06T09:32:05.708Z,1.00
2022-09-06T09:34:41.075Z,1.23
2022-09-06T09:40:19.498Z,1.30
2022-09-06T09:42:53.012Z,1.38
2022-09-06T09:45:31.008Z,1.50
2022-09-06T09:48:22.382Z,1.50
2022-09-06T09:50:56.531Z,1.55
2022-09-06T09:53:27.546Z,1.30
2022-09-06T09:56:00.694Z,1.65
2022-09-06T09:58:36.874Z,1.10
2022-09-06T10:01:18.713Z,1.70
2022-09-06T10:09:35.016Z,1.50
2022-09-06T10:12:06.329Z,1.30
2022-09-06T10:14:43.088Z,1.02
2022-09-06T10:17:21.006Z,1.10
2022-09-06T10:19:51.602Z,1.20
2022-09-06T10:22:28.752Z,1.10
2022-09-06T10:25:35.468Z,1.20
2022-09-06T10:28:30.374Z,1.38
2022-09-06T10:31:27.281Z,1.27
2022-09-06T10:34:18.630Z,1.30
2022-09-06T10:36:57.171Z,1.77
2022-09-06T10:39:51.273Z,1.60
2022-09-06T10:42:34.905Z,1.20
2022-09-06T10:45:39.595Z,1.42
2022-09-06T10:48:17.268Z,1.30
2022-09-06T10:50:53.163Z,1.08
2022-09-06T10:53:41.549Z,1.50
2022-09-06T10:56:18.199Z,1.10
2022-09-06T11:02:03.491Z,1.60
2022-09-06T11:07:34.586Z,1.17
2022-09-06T11:10:12.474Z,1.40
2022-09-06T11:12:48.883Z,1.30
2022-09-06T11:15:25.360Z,1.23
2022-09-06T11:17:59.852Z,1.13
2022-09-06T11:20:41.924Z,1.30
2022-09-06T11:23:29.725Z,1.08
2022-09-06T11:26:38.260Z,1.38
2022-09-06T11:29:19.382Z,1.42
2022-09-06T11:34:57.111Z,1.30
2022-09-06T11:37:33.020Z,1.60
2022-09-06T11:40:29.620Z,1.40
2022-09-06T11:43:19.164Z,1.20
2022-09-06T11:45:51.426Z,1.35
2022-09-06T11:48:51.174Z,1.55
2022-09-06T11:51:41.270Z,1.25
2022-09-06T11:54:36.619Z,1.80
2022-09-06T11:57:16.781Z,1.67
2022-09-06T12:00:01.840Z,1.38
2022-09-06T12:02:38.860Z,1.50
2022-09-06T12:05:20.212Z,1.45
2022-09-06T12:08:36.411Z,1.33
2022-09-06T12:11:27.102Z,1.80
2022-09-06T12:14:04.090Z,1.30
2022-09-06T12:17:12.533Z,1.40
2022-09-06T12:19:50.075Z,1.63
2022-09-06T12:23:10.804Z,1.23
2022-09-06T12:26:00.085Z,1.55
2022-09-06T12:28:47.779Z,1.60
2022-09-06T12:31:39.220Z,1.70
2022-09-06T12:34:13.113Z,1.95
2022-09-06T12:36:56.519Z,1.67
2022-09-06T12:39:27.122Z,1.85
2022-09-06T12:41:59.246Z,1.67
2022-09-06T12:44:35.865Z,1.17
2022-09-06T12:47:12.021Z,1.77
2022-09-06T12:49:49.889Z,1.42
2022-09-06T12:52:21.765Z,1.55
2022-09-06T12:54:52.241Z,1.55
2022-09-06T12:57:25.286Z,2.03
2022-09-06T13:00:04.835Z,1.70
2022-09-06T13:02:45.022Z,2.63
2022-09-06T13:05:16.558Z,2.40
2022-09-06T13:07:51.232Z,2.78
2022-09-06T13:10:27.571Z,2.38
2022-09-06T13:12:59.419Z,2.00
2022-09-06T13:15:32.404Z,2.17
2022-09-06T13:18:24.051Z,2.25
2022-09-06T13:21:03.999Z,1.83
2022-09-06T13:23:45.959Z,1.90
2022-09-06T13:26:16.418Z,2.08
2022-09-06T13:28:47.185Z,1.63
2022-09-06T13:31:27.947Z,1.80
2022-09-06T13:33:59.781Z,2.20
2022-09-06T13:36:31.165Z,2.70
2022-09-06T13:39:03.929Z,2.25
2022-09-06T13:41:46.162Z,2.33
2022-09-06T13:44:29.738Z,2.33
2022-09-06T13:47:00.982Z,1.98
2022-09-06T13:49:33.054Z,1.92
2022-09-06T13:52:04.532Z,2.25
2022-09-06T13:54:34.845Z,1.58
2022-09-06T13:57:10.079Z,2.10
2022-09-06T13:59:39.880Z,2.10
2022-09-06T14:02:16.122Z,1.60
2022-09-06T14:04:47.158Z,2.10
2022-09-06T14:07:16.728Z,3.05
2022-09-06T14:09:45.950Z,2.20
2022-09-06T14:12:20.530Z,1.50
2022-09-06T14:14:51.942Z,1.83
2022-09-06T14:17:22.975Z,1.95
2022-09-06T14:19:52.735Z,1.83
2022-09-06T14:22:23.027Z,1.67
2022-09-06T14:24:54.128Z,1.60
2022-09-06T14:27:24.045Z,2.03
2022-09-06T14:29:53.620Z,1.85
2022-09-06T14:32:24.312Z,2.17
2022-09-06T14:34:54.029Z,1.70
2022-09-06T14:37:23.685Z,2.08
2022-09-06T14:40:00.082Z,2.17
2022-09-06T14:42:30.578Z,2.30
2022-09-06T14:45:00.321Z,2.35
2022-09-06T14:47:33.600Z,2.88
2022-09-06T14:50:04.183Z,1.98
2022-09-06T14:52:34.549Z,2.08
2022-09-06T14:55:05.901Z,2.13
2022-09-06T14:57:35.889Z,2.65
2022-09-06T15:00:08.882Z,2.42
2022-09-06T15:02:39.789Z,2.45
2022-09-06T15:05:11.453Z,2.35
2022-09-06T15:07:41.201Z,2.42
2022-09-06T15:10:12.196Z,2.08
2022-09-06T15:12:43.669Z,2.75
2022-09-06T15:15:13.315Z,3.63
2022-09-06T15:17:45.674Z,2.95
2022-09-06T15:20:17.264Z,2.83
2022-09-06T15:23:15.198Z,2.70
2022-09-06T15:25:49.869Z,1.83
2022-09-06T15:30:50.321Z,1.45
2022-09-06T15:33:20.607Z,1.53
2022-09-06T15:35:56.549Z,1.50
2022-09-06T15:38:26.677Z,1.40
2022-09-06T15:41:08.374Z,1.80
2022-09-06T15:43:40.932Z,1.92
2022-09-06T15:46:15.542Z,1.65
2022-09-06T15:48:48.549Z,1.70
2022-09-06T15:51:22.929Z,1.95
2022-09-06T15:53:53.696Z,1.75
2022-09-06T15:56:23.566Z,2.00
2022-09-06T15:58:53.159Z,1.75
2022-09-06T16:01:24.929Z,1.95
2022-09-06T16:04:14.710Z,2.33
2022-09-06T16:06:44.907Z,1.60
2022-09-06T16:09:17.849Z,1.80
2022-09-06T16:11:49.917Z,1.25
2022-09-06T16:14:23.745Z,1.48
2022-09-06T16:16:55.030Z,1.50
2022-09-06T16:19:26.859Z,1.77
2022-09-06T16:21:59.791Z,1.55
2022-09-06T16:24:34.447Z,1.73
2022-09-06T16:27:05.466Z,1.65
2022-09-06T16:29:36.176Z,1.73
2022-09-06T16:32:07.206Z,1.40
2022-09-06T16:34:38.836Z,1.63
2022-09-06T16:37:09.458Z,1.55
2022-09-06T16:39:40.441Z,1.50
2022-09-06T16:42:11.312Z,1.90
2022-09-06T16:44:41.787Z,1.77
2022-09-06T16:47:16.682Z,1.75
2022-09-06T16:49:49.270Z,1.70
2022-09-06T16:52:20.440Z,2.25
2022-09-06T16:54:51.151Z,1.95
2022-09-06T16:57:22.446Z,1.90
2022-09-06T16:59:55.745Z,2.03
2022-09-06T17:02:28.192Z,1.95
2022-09-06T17:04:59.038Z,1.75
2022-09-06T17:07:29.746Z,2.08
2022-09-06T17:09:59.666Z,2.28
2022-09-06T17:12:29.650Z,2.15
2022-09-06T17:14:59.238Z,1.92
2022-09-06T17:17:29.338Z,1.70
2022-09-06T17:20:02.931Z,1.30
2022-09-06T17:22:32.942Z,1.60
2022-09-06T17:25:03.534Z,1.40
2022-09-06T17:27:35.427Z,1.60
2022-09-06T17:30:05.686Z,1.73
2022-09-06T17:32:36.917Z,1.30
2022-09-06T17:35:08.724Z,1.67
2022-09-06T17:37:40.015Z,1.45
2022-09-06T17:40:11.333Z,1.60
2022-09-06T17:42:41.727Z,1.30
2022-09-06T17:45:11.770Z,1.52
2022-09-06T17:47:41.686Z,1.65
2022-09-06T17:50:12.750Z,1.42
2022-09-06T17:52:42.956Z,2.13
2022-09-06T17:55:13.002Z,1.65
2022-09-06T17:57:45.962Z,1.77
2022-09-06T18:00:16.914Z,1.70
2022-09-06T18:02:48.335Z,1.70
2022-09-06T18:05:21.791Z,1.52
2022-09-06T18:07:51.800Z,1.52
2022-09-06T18:10:21.970Z,1.65
2022-09-06T18:12:52.353Z,1.42
2022-09-06T18:15:23.665Z,1.60
2022-09-06T18:17:53.443Z,1.45
2022-09-06T18:20:24.620Z,1.80
2022-09-06T18:25:24.837Z,1.73
2022-09-06T18:27:54.209Z,1.40
2022-09-06T18:30:24.370Z,1.73
2022-09-06T18:32:54.388Z,1.38
2022-09-06T18:35:27.342Z,1.98
2022-09-06T18:37:56.917Z,1.55
2022-09-06T18:40:27.080Z,1.77
2022-09-06T18:42:59.466Z,1.67
2022-09-06T18:47:58.572Z,1.40
2022-09-06T18:50:28.858Z,1.40
2022-09-06T18:52:59.700Z,1.50
2022-09-06T18:55:29.292Z,1.73
2022-09-06T18:57:58.716Z,1.55
2022-09-06T19:00:29.783Z,1.63
2022-09-06T19:02:59.484Z,1.52
2022-09-06T19:05:30.063Z,1.80
2022-09-06T19:07:59.692Z,1.57
2022-09-06T19:10:29.882Z,1.27
2022-09-06T19:12:59.849Z,1.42
2022-09-06T19:15:32.550Z,1.42
2022-09-06T19:18:03.559Z,2.05
2022-09-06T19:20:34.728Z,1.70
2022-09-06T19:23:05.801Z,1.67
2022-09-06T19:25:35.517Z,2.10
2022-09-06T19:28:05.274Z,1.38
2022-09-06T19:30:37.091Z,1.65
2022-09-06T19:33:16.056Z,1.92
2022-09-06T19:36:10.457Z,2.15
2022-09-06T19:39:02.945Z,1.70
2022-09-06T19:41:39.330Z,1.80
2022-09-06T19:44:13.405Z,2.10
2022-09-06T19:46:47.551Z,1.67
2022-09-06T19:49:20.585Z,1.52
2022-09-06T19:52:10.790Z,1.90
2022-09-06T19:54:52.708Z,1.63
2022-09-06T19:57:24.468Z,1.80
2022-09-06T19:59:55.291Z,1.80
2022-09-06T20:02:36.267Z,2.17
2022-09-06T20:05:09.131Z,2.00
2022-09-06T20:07:46.213Z,1.63
2022-09-06T20:10:21.712Z,2.15
2022-09-06T20:12:53.658Z,1.77
2022-09-06T20:17:53.614Z,1.70
2022-09-06T20:20:26.021Z,1.88
2022-09-06T20:23:00.257Z,2.13
2022-09-06T20:25:32.993Z,1.50
2022-09-06T20:28:08.383Z,1.80
2022-09-06T20:30:46.155Z,2.00
2022-09-06T20:33:18.980Z,1.27
2022-09-06T20:35:57.012Z,1.90
2022-09-06T20:38:31.588Z,2.35
2022-09-06T20:41:07.369Z,1.67
2022-09-06T20:43:39.779Z,2.17
2022-09-06T20:46:14.689Z,1.98
2022-09-06T20:48:46.969Z,2.00
2022-09-06T20:51:24.008Z,1.95
2022-09-06T20:53:58.297Z,1.98
2022-09-06T20:56:31.097Z,1.58
2022-09-06T20:59:03.911Z,1.95
2022-09-06T21:01:37.763Z,1.85
2022-09-06T21:04:09.759Z,1.60
2022-09-06T21:06:41.264Z,1.80
2022-09-06T21:09:14.421Z,1.80
2022-09-06T21:11:54.405Z,2.08
2022-09-06T21:14:26.322Z,1.63
2022-09-06T21:17:03.756Z,1.80
2022-09-06T21:19:36.641Z,1.98
2022-09-06T21:22:06.981Z,1.40
2022-09-06T21:24:41.082Z,1.77
2022-09-06T21:27:14.731Z,2.50
2022-09-06T21:29:44.751Z,2.20
2022-09-06T21:32:19.649Z,2.08
2022-09-06T21:34:51.655Z,1.85
2022-09-06T21:37:22.880Z,1.70
2022-09-06T21:39:54.623Z,1.95
2022-09-06T21:42:25.197Z,1.60
2022-09-06T21:44:55.803Z,1.92
2022-09-06T21:47:26.031Z,1.98
2022-09-06T21:49:56.096Z,1.80
2022-09-06T21:52:25.587Z,1.85
2022-09-06T21:54:56.737Z,1.80
2022-09-06T21:57:26.566Z,1.80
2022-09-06T21:59:56.475Z,1.98
2022-09-06T22:02:28.819Z,1.90
2022-09-06T22:04:59.074Z,2.03
2022-09-06T22:07:29.014Z,2.10
2022-09-06T22:10:04.863Z,1.80
2022-09-06T22:12:34.535Z,1.70
2022-09-06T22:15:03.591Z,1.92
2022-09-06T22:17:35.992Z,2.00
2022-09-06T22:20:06.439Z,1.70
2022-09-06T22:22:37.943Z,1.83
2022-09-06T22:27:40.367Z,2.00
2022-09-06T22:30:12.884Z,1.55
2022-09-06T22:32:43.419Z,2.15
2022-09-06T22:35:14.556Z,1.98
2022-09-06T22:37:43.864Z,2.10
2022-09-06T22:40:16.041Z,1.67
2022-09-06T22:42:48.154Z,1.65
2022-09-06T22:45:17.566Z,2.28
2022-09-06T22:47:47.556Z,1.85
2022-09-06T22:50:17.336Z,1.73
2022-09-06T22:52:46.753Z,1.63
2022-09-06T22:55:18.939Z,2.00
2022-09-06T22:57:49.261Z,1.75
2022-09-06T23:00:20.494Z,2.38
2022-09-06T23:02:49.819Z,1.80
2022-09-06T23:05:20.002Z,2.05
2022-09-06T23:07:50.425Z,1.80
2022-09-06T23:10:21.864Z,1.77
2022-09-06T23:15:22.620Z,1.95
2022-09-06T23:17:52.967Z,1.95
2022-09-06T23:20:23.305Z,2.05
2022-09-06T23:22:54.509Z,1.90
2022-09-06T23:25:26.739Z,1.77
2022-09-06T23:28:00.350Z,2.08
2022-09-06T23:30:31.931Z,2.00
2022-09-06T23:33:03.516Z,2.58
2022-09-06T23:35:33.168Z,1.93
2022-09-06T23:38:03.361Z,1.90
2022-09-06T23:40:35.288Z,2.35
2022-09-06T23:43:04.683Z,2.38
2022-09-06T23:45:47.839Z,2.60
2022-09-06T23:48:17.317Z,2.50
2022-09-06T23:50:49.426Z,2.28
2022-09-06T23:55:52.120Z,2.30
2022-09-06T23:58:21.732Z,2.60
